sensor_id;sensor_type;location;lat;lon;timestamp;temperature;humidity
12438;DHT22;6283;51.330;12.374;2023-09-19T00:00:21;18.30;99.90
12438;DHT22;6283;51.330;12.374;2023-09-19T00:02:53;18.30;99.90
12438;DHT22;6283;51.330;12.374;2023-09-19T00:05:19;18.20;99.90
12438;DHT22;6283;51.330;12.374;2023-09-19T00:07:52;18.20;99.90
12438;DHT22;6283;51.330;12.374;2023-09-19T00:10:22;18.20;99.90
12438;DHT22;6283;51.330;12.374;2023-09-19T00:12:51;18.20;99.90
12438;DHT22;6283;51.330;12.374;2023-09-19T00:15:17;18.10;99.90
12438;DHT22;6283;51.330;12.374;2023-09-19T00:17:44;18.10;99.90
12438;DHT22;6283;51.330;12.374;2023-09-19T00:20:11;18.00;99.90
12438;DHT22;6283;51.330;12.374;2023-09-19T00:22:44;18.00;99.90
12438;DHT22;6283;51.330;12.374;2023-09-19T00:25:10;18.00;99.90
12438;DHT22;6283;51.330;12.374;2023-09-19T00:27:38;17.90;99.90
12438;DHT22;6283;51.330;12.374;2023-09-19T00:30:09;17.90;99.90
12438;DHT22;6283;51.330;12.374;2023-09-19T00:32:45;17.80;99.90
12438;DHT22;6283;51.330;12.374;2023-09-19T00:35:13;17.80;99.90
12438;DHT22;6283;51.330;12.374;2023-09-19T00:37:40;17.80;99.90
12438;DHT22;6283;51.330;12.374;2023-09-19T00:40:08;17.80;99.90
12438;DHT22;6283;51.330;12.374;2023-09-19T00:42:41;17.80;1.00
12438;DHT22;6283;51.330;12.374;2023-09-19T00:45:11;17.70;1.00
12438;DHT22;6283;51.330;12.374;2023-09-19T00:47:55;17.70;1.00
12438;DHT22;6283;51.330;12.374;2023-09-19T00:50:24;17.70;1.00
12438;DHT22;6283;51.330;12.374;2023-09-19T00:52:54;17.70;1.00
12438;DHT22;6283;51.330;12.374;2023-09-19T00:55:21;17.70;1.00
12438;DHT22;6283;51.330;12.374;2023-09-19T00:57:47;17.60;61.80
12438;DHT22;6283;51.330;12.374;2023-09-19T01:00:15;17.70;99.90
12438;DHT22;6283;51.330;12.374;2023-09-19T01:02:42;17.70;99.90
12438;DHT22;6283;51.330;12.374;2023-09-19T01:05:11;17.70;99.90
12438;DHT22;6283;51.330;12.374;2023-09-19T01:07:38;17.70;99.90
12438;DHT22;6283;51.330;12.374;2023-09-19T01:10:11;17.70;99.90
12438;DHT22;6283;51.330;12.374;2023-09-19T01:13:02;17.70;99.90
12438;DHT22;6283;51.330;12.374;2023-09-19T01:15:44;17.60;99.90
12438;DHT22;6283;51.330;12.374;2023-09-19T01:26:06;17.60;99.90
12438;DHT22;6283;51.330;12.374;2023-09-19T01:28:52;17.60;99.90
12438;DHT22;6283;51.330;12.374;2023-09-19T01:31:24;17.60;99.90
12438;DHT22;6283;51.330;12.374;2023-09-19T01:34:01;17.60;99.90
12438;DHT22;6283;51.330;12.374;2023-09-19T01:36:32;17.60;1.00
12438;DHT22;6283;51.330;12.374;2023-09-19T01:39:07;17.60;1.00
12438;DHT22;6283;51.330;12.374;2023-09-19T01:41:52;17.60;1.00
12438;DHT22;6283;51.330;12.374;2023-09-19T01:44:48;17.50;1.00
12438;DHT22;6283;51.330;12.374;2023-09-19T01:47:37;17.50;1.00
12438;DHT22;6283;51.330;12.374;2023-09-19T01:50:19;17.50;1.00
12438;DHT22;6283;51.330;12.374;2023-09-19T01:52:49;17.50;1.00
12438;DHT22;6283;51.330;12.374;2023-09-19T01:55:18;17.50;1.00
12438;DHT22;6283;51.330;12.374;2023-09-19T01:58:08;17.40;1.00
12438;DHT22;6283;51.330;12.374;2023-09-19T02:00:41;17.40;1.00
12438;DHT22;6283;51.330;12.374;2023-09-19T02:03:09;17.40;1.00
12438;DHT22;6283;51.330;12.374;2023-09-19T02:05:35;17.40;1.00
12438;DHT22;6283;51.330;12.374;2023-09-19T02:08:01;17.40;1.00
12438;DHT22;6283;51.330;12.374;2023-09-19T02:10:26;17.40;99.90
12438;DHT22;6283;51.330;12.374;2023-09-19T02:12:52;17.30;99.90
12438;DHT22;6283;51.330;12.374;2023-09-19T02:15:18;17.40;99.90
12438;DHT22;6283;51.330;12.374;2023-09-19T02:17:43;17.30;99.90
12438;DHT22;6283;51.330;12.374;2023-09-19T02:20:12;17.40;99.90
12438;DHT22;6283;51.330;12.374;2023-09-19T02:22:39;17.30;33.40
12438;DHT22;6283;51.330;12.374;2023-09-19T02:25:05;17.30;1.00
12438;DHT22;6283;51.330;12.374;2023-09-19T02:27:32;17.40;1.00
12438;DHT22;6283;51.330;12.374;2023-09-19T02:29:58;17.30;1.00
12438;DHT22;6283;51.330;12.374;2023-09-19T02:32:23;17.40;1.00
12438;DHT22;6283;51.330;12.374;2023-09-19T02:34:49;17.40;1.00
12438;DHT22;6283;51.330;12.374;2023-09-19T02:37:18;17.30;1.00
12438;DHT22;6283;51.330;12.374;2023-09-19T02:39:45;17.30;1.00
12438;DHT22;6283;51.330;12.374;2023-09-19T02:42:10;17.30;1.00
12438;DHT22;6283;51.330;12.374;2023-09-19T02:44:36;17.30;1.00
12438;DHT22;6283;51.330;12.374;2023-09-19T02:47:03;17.30;1.00
12438;DHT22;6283;51.330;12.374;2023-09-19T02:49:29;17.40;1.00
12438;DHT22;6283;51.330;12.374;2023-09-19T02:51:55;17.30;1.00
12438;DHT22;6283;51.330;12.374;2023-09-19T02:54:20;17.30;1.00
12438;DHT22;6283;51.330;12.374;2023-09-19T02:56:47;17.30;1.00
12438;DHT22;6283;51.330;12.374;2023-09-19T02:59:12;17.40;1.00
12438;DHT22;6283;51.330;12.374;2023-09-19T03:01:38;17.40;1.00
12438;DHT22;6283;51.330;12.374;2023-09-19T03:04:05;17.40;1.00
12438;DHT22;6283;51.330;12.374;2023-09-19T03:06:31;17.40;99.90
12438;DHT22;6283;51.330;12.374;2023-09-19T03:08:58;17.40;99.90
12438;DHT22;6283;51.330;12.374;2023-09-19T03:11:25;17.40;99.90
12438;DHT22;6283;51.330;12.374;2023-09-19T03:13:54;17.40;99.90
12438;DHT22;6283;51.330;12.374;2023-09-19T03:16:20;17.50;99.90
12438;DHT22;6283;51.330;12.374;2023-09-19T03:18:48;17.50;99.90
12438;DHT22;6283;51.330;12.374;2023-09-19T03:21:17;17.50;99.90
12438;DHT22;6283;51.330;12.374;2023-09-19T03:23:44;17.50;99.90
12438;DHT22;6283;51.330;12.374;2023-09-19T03:26:12;17.50;99.90
12438;DHT22;6283;51.330;12.374;2023-09-19T03:28:38;17.50;99.90
12438;DHT22;6283;51.330;12.374;2023-09-19T03:31:05;17.50;99.90
12438;DHT22;6283;51.330;12.374;2023-09-19T03:33:31;17.50;99.90
12438;DHT22;6283;51.330;12.374;2023-09-19T03:35:58;17.50;99.90
12438;DHT22;6283;51.330;12.374;2023-09-19T03:38:25;17.50;99.90
12438;DHT22;6283;51.330;12.374;2023-09-19T03:40:51;17.50;99.90
12438;DHT22;6283;51.330;12.374;2023-09-19T03:43:16;17.50;99.90
12438;DHT22;6283;51.330;12.374;2023-09-19T03:45:43;17.50;99.90
12438;DHT22;6283;51.330;12.374;2023-09-19T03:48:09;17.50;99.90
12438;DHT22;6283;51.330;12.374;2023-09-19T03:50:35;17.50;99.90
12438;DHT22;6283;51.330;12.374;2023-09-19T03:53:01;17.50;99.90
12438;DHT22;6283;51.330;12.374;2023-09-19T03:55:27;17.50;99.90
12438;DHT22;6283;51.330;12.374;2023-09-19T03:57:53;17.40;99.90
12438;DHT22;6283;51.330;12.374;2023-09-19T04:00:19;17.40;99.90
12438;DHT22;6283;51.330;12.374;2023-09-19T04:02:48;17.40;99.90
12438;DHT22;6283;51.330;12.374;2023-09-19T04:05:13;17.40;99.90
12438;DHT22;6283;51.330;12.374;2023-09-19T04:07:39;17.40;99.90
12438;DHT22;6283;51.330;12.374;2023-09-19T04:10:05;17.40;99.90
12438;DHT22;6283;51.330;12.374;2023-09-19T04:12:34;17.40;99.90
12438;DHT22;6283;51.330;12.374;2023-09-19T04:14:59;17.40;99.90
12438;DHT22;6283;51.330;12.374;2023-09-19T04:17:25;17.40;99.90
12438;DHT22;6283;51.330;12.374;2023-09-19T04:19:51;17.40;99.90
12438;DHT22;6283;51.330;12.374;2023-09-19T04:22:16;17.40;99.90
12438;DHT22;6283;51.330;12.374;2023-09-19T04:24:42;17.40;99.90
12438;DHT22;6283;51.330;12.374;2023-09-19T04:27:08;17.30;99.90
12438;DHT22;6283;51.330;12.374;2023-09-19T04:29:35;17.30;99.90
12438;DHT22;6283;51.330;12.374;2023-09-19T04:32:00;17.30;99.90
12438;DHT22;6283;51.330;12.374;2023-09-19T04:34:26;17.30;99.90
12438;DHT22;6283;51.330;12.374;2023-09-19T04:36:52;17.30;99.90
12438;DHT22;6283;51.330;12.374;2023-09-19T04:39:18;17.30;99.90
12438;DHT22;6283;51.330;12.374;2023-09-19T04:41:44;17.30;99.90
12438;DHT22;6283;51.330;12.374;2023-09-19T04:44:13;17.20;99.90
12438;DHT22;6283;51.330;12.374;2023-09-19T04:46:39;17.20;99.90
12438;DHT22;6283;51.330;12.374;2023-09-19T04:49:04;17.20;99.90
12438;DHT22;6283;51.330;12.374;2023-09-19T04:51:30;17.20;99.90
12438;DHT22;6283;51.330;12.374;2023-09-19T04:54:02;17.20;98.80
12438;DHT22;6283;51.330;12.374;2023-09-19T04:56:28;17.20;77.90
12438;DHT22;6283;51.330;12.374;2023-09-19T04:58:54;17.20;60.60
12438;DHT22;6283;51.330;12.374;2023-09-19T05:01:20;17.10;48.10
12438;DHT22;6283;51.330;12.374;2023-09-19T05:03:48;17.20;55.10
12438;DHT22;6283;51.330;12.374;2023-09-19T05:06:21;17.20;26.00
12438;DHT22;6283;51.330;12.374;2023-09-19T05:08:47;17.20;8.40
12438;DHT22;6283;51.330;12.374;2023-09-19T05:11:17;17.20;1.30
12438;DHT22;6283;51.330;12.374;2023-09-19T05:13:43;17.20;1.00
12438;DHT22;6283;51.330;12.374;2023-09-19T05:16:09;17.20;1.00
12438;DHT22;6283;51.330;12.374;2023-09-19T05:18:35;17.10;1.00
12438;DHT22;6283;51.330;12.374;2023-09-19T05:21:04;17.10;1.00
12438;DHT22;6283;51.330;12.374;2023-09-19T05:23:30;17.00;3.00
12438;DHT22;6283;51.330;12.374;2023-09-19T05:25:56;17.00;11.60
12438;DHT22;6283;51.330;12.374;2023-09-19T05:28:26;17.00;1.00
12438;DHT22;6283;51.330;12.374;2023-09-19T05:30:52;16.90;1.00
12438;DHT22;6283;51.330;12.374;2023-09-19T05:33:18;16.90;1.00
12438;DHT22;6283;51.330;12.374;2023-09-19T05:35:44;16.90;1.00
12438;DHT22;6283;51.330;12.374;2023-09-19T05:38:12;16.90;1.00
12438;DHT22;6283;51.330;12.374;2023-09-19T05:40:42;16.80;1.00
12438;DHT22;6283;51.330;12.374;2023-09-19T05:43:08;16.90;1.00
12438;DHT22;6283;51.330;12.374;2023-09-19T05:45:34;16.80;1.00
12438;DHT22;6283;51.330;12.374;2023-09-19T05:48:11;16.90;1.00
12438;DHT22;6283;51.330;12.374;2023-09-19T05:50:39;16.80;1.00
12438;DHT22;6283;51.330;12.374;2023-09-19T05:53:05;16.80;1.00
12438;DHT22;6283;51.330;12.374;2023-09-19T05:55:32;16.80;1.00
12438;DHT22;6283;51.330;12.374;2023-09-19T05:57:58;16.80;1.00
12438;DHT22;6283;51.330;12.374;2023-09-19T06:00:24;16.80;1.00
12438;DHT22;6283;51.330;12.374;2023-09-19T06:02:57;16.80;1.00
12438;DHT22;6283;51.330;12.374;2023-09-19T06:05:23;16.80;1.00
12438;DHT22;6283;51.330;12.374;2023-09-19T06:07:50;16.80;1.00
12438;DHT22;6283;51.330;12.374;2023-09-19T06:10:17;16.80;1.00
12438;DHT22;6283;51.330;12.374;2023-09-19T06:12:44;16.90;1.00
12438;DHT22;6283;51.330;12.374;2023-09-19T06:15:10;16.90;1.00
12438;DHT22;6283;51.330;12.374;2023-09-19T06:17:42;16.90;1.00
12438;DHT22;6283;51.330;12.374;2023-09-19T06:20:08;16.90;1.00
12438;DHT22;6283;51.330;12.374;2023-09-19T06:22:44;17.00;1.00
12438;DHT22;6283;51.330;12.374;2023-09-19T06:25:11;17.10;1.00
12438;DHT22;6283;51.330;12.374;2023-09-19T06:27:41;17.10;1.00
12438;DHT22;6283;51.330;12.374;2023-09-19T06:30:08;17.20;1.00
12438;DHT22;6283;51.330;12.374;2023-09-19T06:32:34;17.30;1.00
12438;DHT22;6283;51.330;12.374;2023-09-19T06:35:00;17.40;1.00
12438;DHT22;6283;51.330;12.374;2023-09-19T06:37:29;17.40;1.00
12438;DHT22;6283;51.330;12.374;2023-09-19T06:39:55;17.50;1.00
12438;DHT22;6283;51.330;12.374;2023-09-19T06:42:22;17.60;1.00
12438;DHT22;6283;51.330;12.374;2023-09-19T06:44:48;17.60;1.00
12438;DHT22;6283;51.330;12.374;2023-09-19T06:47:14;17.70;1.00
12438;DHT22;6283;51.330;12.374;2023-09-19T06:49:42;17.70;1.00
12438;DHT22;6283;51.330;12.374;2023-09-19T06:52:10;17.80;1.00
12438;DHT22;6283;51.330;12.374;2023-09-19T06:54:36;17.90;1.00
12438;DHT22;6283;51.330;12.374;2023-09-19T06:57:03;17.90;1.00
12438;DHT22;6283;51.330;12.374;2023-09-19T06:59:29;18.00;1.00
12438;DHT22;6283;51.330;12.374;2023-09-19T07:01:54;18.00;1.00
12438;DHT22;6283;51.330;12.374;2023-09-19T07:04:20;18.10;1.00
12438;DHT22;6283;51.330;12.374;2023-09-19T07:06:49;18.20;1.00
12438;DHT22;6283;51.330;12.374;2023-09-19T07:09:16;18.30;1.00
12438;DHT22;6283;51.330;12.374;2023-09-19T07:11:42;18.40;1.00
12438;DHT22;6283;51.330;12.374;2023-09-19T07:14:08;18.50;1.00
12438;DHT22;6283;51.330;12.374;2023-09-19T07:16:37;18.60;1.00
12438;DHT22;6283;51.330;12.374;2023-09-19T07:19:04;18.60;1.00
12438;DHT22;6283;51.330;12.374;2023-09-19T07:21:30;18.70;1.00
12438;DHT22;6283;51.330;12.374;2023-09-19T07:23:55;18.70;1.00
12438;DHT22;6283;51.330;12.374;2023-09-19T07:26:21;18.60;1.00
12438;DHT22;6283;51.330;12.374;2023-09-19T07:28:47;18.70;1.00
12438;DHT22;6283;51.330;12.374;2023-09-19T07:31:12;18.70;1.00
12438;DHT22;6283;51.330;12.374;2023-09-19T07:33:39;18.60;1.00
12438;DHT22;6283;51.330;12.374;2023-09-19T07:36:06;18.60;1.00
12438;DHT22;6283;51.330;12.374;2023-09-19T07:38:34;18.60;1.00
12438;DHT22;6283;51.330;12.374;2023-09-19T07:41:01;18.60;1.00
12438;DHT22;6283;51.330;12.374;2023-09-19T07:43:28;18.70;1.00
12438;DHT22;6283;51.330;12.374;2023-09-19T07:45:53;18.80;1.00
12438;DHT22;6283;51.330;12.374;2023-09-19T07:48:19;18.80;1.00
12438;DHT22;6283;51.330;12.374;2023-09-19T07:50:44;18.80;1.00
12438;DHT22;6283;51.330;12.374;2023-09-19T07:53:11;18.90;1.00
12438;DHT22;6283;51.330;12.374;2023-09-19T07:55:39;19.00;1.00
12438;DHT22;6283;51.330;12.374;2023-09-19T07:58:06;19.00;1.00
12438;DHT22;6283;51.330;12.374;2023-09-19T08:00:32;19.10;1.00
12438;DHT22;6283;51.330;12.374;2023-09-19T08:03:00;19.00;1.00
12438;DHT22;6283;51.330;12.374;2023-09-19T08:05:26;19.10;1.00
12438;DHT22;6283;51.330;12.374;2023-09-19T08:07:53;19.10;1.00
12438;DHT22;6283;51.330;12.374;2023-09-19T08:10:22;19.20;1.00
12438;DHT22;6283;51.330;12.374;2023-09-19T08:12:48;19.20;1.00
12438;DHT22;6283;51.330;12.374;2023-09-19T08:15:18;19.20;1.00
12438;DHT22;6283;51.330;12.374;2023-09-19T08:17:45;19.10;1.00
12438;DHT22;6283;51.330;12.374;2023-09-19T08:20:12;19.00;1.00
12438;DHT22;6283;51.330;12.374;2023-09-19T08:22:51;18.90;1.00
12438;DHT22;6283;51.330;12.374;2023-09-19T08:25:18;18.80;1.00
12438;DHT22;6283;51.330;12.374;2023-09-19T08:27:47;18.70;1.00
12438;DHT22;6283;51.330;12.374;2023-09-19T08:30:19;18.70;1.00
12438;DHT22;6283;51.330;12.374;2023-09-19T08:33:07;18.70;1.00
12438;DHT22;6283;51.330;12.374;2023-09-19T08:35:33;18.70;1.00
12438;DHT22;6283;51.330;12.374;2023-09-19T08:37:59;18.70;1.00
12438;DHT22;6283;51.330;12.374;2023-09-19T08:40:30;18.70;1.00
12438;DHT22;6283;51.330;12.374;2023-09-19T08:42:59;18.70;1.00
12438;DHT22;6283;51.330;12.374;2023-09-19T08:45:26;18.70;1.00
12438;DHT22;6283;51.330;12.374;2023-09-19T08:48:27;18.70;1.00
12438;DHT22;6283;51.330;12.374;2023-09-19T08:54:08;18.80;1.00
12438;DHT22;6283;51.330;12.374;2023-09-19T08:56:39;18.80;1.00
12438;DHT22;6283;51.330;12.374;2023-09-19T08:59:06;18.90;1.00
12438;DHT22;6283;51.330;12.374;2023-09-19T09:01:36;18.90;1.00
12438;DHT22;6283;51.330;12.374;2023-09-19T09:04:08;19.00;1.00
12438;DHT22;6283;51.330;12.374;2023-09-19T09:06:34;19.00;1.00
12438;DHT22;6283;51.330;12.374;2023-09-19T09:09:02;19.00;1.00
12438;DHT22;6283;51.330;12.374;2023-09-19T09:11:29;19.10;1.00
12438;DHT22;6283;51.330;12.374;2023-09-19T09:13:55;19.20;1.00
12438;DHT22;6283;51.330;12.374;2023-09-19T09:16:21;19.30;1.00
12438;DHT22;6283;51.330;12.374;2023-09-19T09:18:51;19.50;1.00
12438;DHT22;6283;51.330;12.374;2023-09-19T09:21:18;19.50;1.00
12438;DHT22;6283;51.330;12.374;2023-09-19T09:23:44;19.50;1.00
12438;DHT22;6283;51.330;12.374;2023-09-19T09:26:09;19.60;1.00
12438;DHT22;6283;51.330;12.374;2023-09-19T09:28:35;19.70;1.00
12438;DHT22;6283;51.330;12.374;2023-09-19T09:31:04;19.80;1.00
12438;DHT22;6283;51.330;12.374;2023-09-19T09:33:35;19.90;1.00
12438;DHT22;6283;51.330;12.374;2023-09-19T09:36:02;19.80;99.90
12438;DHT22;6283;51.330;12.374;2023-09-19T09:38:47;19.80;99.90
12438;DHT22;6283;51.330;12.374;2023-09-19T09:41:35;19.90;99.90
12438;DHT22;6283;51.330;12.374;2023-09-19T09:44:16;19.90;99.90
12438;DHT22;6283;51.330;12.374;2023-09-19T09:46:48;20.00;99.90
12438;DHT22;6283;51.330;12.374;2023-09-19T09:49:24;20.00;99.90
12438;DHT22;6283;51.330;12.374;2023-09-19T09:54:33;20.20;99.90
12438;DHT22;6283;51.330;12.374;2023-09-19T09:57:06;20.30;99.90
12438;DHT22;6283;51.330;12.374;2023-09-19T09:59:46;20.40;99.90
12438;DHT22;6283;51.330;12.374;2023-09-19T10:02:14;20.40;99.90
12438;DHT22;6283;51.330;12.374;2023-09-19T10:04:40;20.40;99.90
12438;DHT22;6283;51.330;12.374;2023-09-19T10:07:43;20.30;99.90
12438;DHT22;6283;51.330;12.374;2023-09-19T10:10:30;20.30;99.90
12438;DHT22;6283;51.330;12.374;2023-09-19T10:13:05;20.20;99.90
12438;DHT22;6283;51.330;12.374;2023-09-19T10:15:34;20.10;99.90
12438;DHT22;6283;51.330;12.374;2023-09-19T10:18:04;20.10;99.90
12438;DHT22;6283;51.330;12.374;2023-09-19T10:20:30;20.00;99.90
12438;DHT22;6283;51.330;12.374;2023-09-19T10:22:56;19.90;99.90
12438;DHT22;6283;51.330;12.374;2023-09-19T10:25:27;19.90;99.90
12438;DHT22;6283;51.330;12.374;2023-09-19T10:27:57;19.90;99.90
12438;DHT22;6283;51.330;12.374;2023-09-19T10:30:28;19.90;99.90
12438;DHT22;6283;51.330;12.374;2023-09-19T10:33:02;19.90;99.90
12438;DHT22;6283;51.330;12.374;2023-09-19T10:35:28;19.90;99.90
12438;DHT22;6283;51.330;12.374;2023-09-19T10:38:00;20.00;99.90
12438;DHT22;6283;51.330;12.374;2023-09-19T10:40:27;20.00;99.90
12438;DHT22;6283;51.330;12.374;2023-09-19T10:43:04;20.00;99.90
12438;DHT22;6283;51.330;12.374;2023-09-19T10:45:35;20.00;99.90
12438;DHT22;6283;51.330;12.374;2023-09-19T10:48:04;20.10;99.90
12438;DHT22;6283;51.330;12.374;2023-09-19T10:50:34;20.10;99.90
12438;DHT22;6283;51.330;12.374;2023-09-19T10:53:04;20.10;99.90
12438;DHT22;6283;51.330;12.374;2023-09-19T10:55:33;20.10;99.90
12438;DHT22;6283;51.330;12.374;2023-09-19T10:58:01;20.20;99.90
12438;DHT22;6283;51.330;12.374;2023-09-19T11:00:30;20.30;99.90
12438;DHT22;6283;51.330;12.374;2023-09-19T11:05:41;20.50;99.90
12438;DHT22;6283;51.330;12.374;2023-09-19T11:08:10;20.50;99.90
12438;DHT22;6283;51.330;12.374;2023-09-19T11:10:47;20.50;99.90
12438;DHT22;6283;51.330;12.374;2023-09-19T11:13:27;20.50;99.90
12438;DHT22;6283;51.330;12.374;2023-09-19T11:26:50;20.60;99.90
12438;DHT22;6283;51.330;12.374;2023-09-19T11:31:54;20.60;99.90
12438;DHT22;6283;51.330;12.374;2023-09-19T11:37:01;20.90;99.90
12438;DHT22;6283;51.330;12.374;2023-09-19T11:39:30;20.90;99.90
12438;DHT22;6283;51.330;12.374;2023-09-19T11:41:56;21.00;99.90
12438;DHT22;6283;51.330;12.374;2023-09-19T11:44:32;21.20;99.90
12438;DHT22;6283;51.330;12.374;2023-09-19T11:47:04;21.20;99.90
12438;DHT22;6283;51.330;12.374;2023-09-19T11:49:32;21.30;99.90
12438;DHT22;6283;51.330;12.374;2023-09-19T11:52:00;21.50;99.90
12438;DHT22;6283;51.330;12.374;2023-09-19T11:54:27;21.60;99.90
12438;DHT22;6283;51.330;12.374;2023-09-19T11:56:57;21.50;99.90
12438;DHT22;6283;51.330;12.374;2023-09-19T11:59:24;21.50;99.90
12438;DHT22;6283;51.330;12.374;2023-09-19T12:01:57;21.50;99.90
12438;DHT22;6283;51.330;12.374;2023-09-19T12:06:58;21.80;99.90
12438;DHT22;6283;51.330;12.374;2023-09-19T12:09:24;22.10;99.90
12438;DHT22;6283;51.330;12.374;2023-09-19T12:11:50;22.20;99.90
12438;DHT22;6283;51.330;12.374;2023-09-19T12:14:26;22.30;99.90
12438;DHT22;6283;51.330;12.374;2023-09-19T12:16:55;22.10;99.90
12438;DHT22;6283;51.330;12.374;2023-09-19T12:19:22;22.10;99.90
12438;DHT22;6283;51.330;12.374;2023-09-19T12:22:02;22.10;99.90
12438;DHT22;6283;51.330;12.374;2023-09-19T12:24:29;22.00;99.90
12438;DHT22;6283;51.330;12.374;2023-09-19T12:27:04;21.90;99.90
12438;DHT22;6283;51.330;12.374;2023-09-19T12:29:32;21.70;99.90
12438;DHT22;6283;51.330;12.374;2023-09-19T12:31:59;21.60;99.90
12438;DHT22;6283;51.330;12.374;2023-09-19T12:34:32;21.40;99.90
12438;DHT22;6283;51.330;12.374;2023-09-19T12:37:16;21.50;99.90
12438;DHT22;6283;51.330;12.374;2023-09-19T12:39:50;21.60;99.90
12438;DHT22;6283;51.330;12.374;2023-09-19T12:42:19;21.60;99.90
12438;DHT22;6283;51.330;12.374;2023-09-19T12:44:49;21.60;99.90
12438;DHT22;6283;51.330;12.374;2023-09-19T12:47:20;21.50;99.90
12438;DHT22;6283;51.330;12.374;2023-09-19T12:50:13;21.50;99.90
12438;DHT22;6283;51.330;12.374;2023-09-19T12:52:44;21.40;99.90
12438;DHT22;6283;51.330;12.374;2023-09-19T12:55:27;21.40;99.90
12438;DHT22;6283;51.330;12.374;2023-09-19T12:58:12;21.50;99.90
12438;DHT22;6283;51.330;12.374;2023-09-19T13:00:39;21.60;99.90
12438;DHT22;6283;51.330;12.374;2023-09-19T13:11:13;22.20;99.90
12438;DHT22;6283;51.330;12.374;2023-09-19T13:13:44;22.40;99.90
12438;DHT22;6283;51.330;12.374;2023-09-19T13:16:11;22.70;99.90
12438;DHT22;6283;51.330;12.374;2023-09-19T13:21:17;23.10;99.90
12438;DHT22;6283;51.330;12.374;2023-09-19T13:23:53;23.30;99.90
12438;DHT22;6283;51.330;12.374;2023-09-19T13:26:25;23.50;99.90
12438;DHT22;6283;51.330;12.374;2023-09-19T13:28:51;23.50;99.90
12438;DHT22;6283;51.330;12.374;2023-09-19T13:31:16;23.60;99.90
12438;DHT22;6283;51.330;12.374;2023-09-19T13:33:46;23.40;99.90
12438;DHT22;6283;51.330;12.374;2023-09-19T13:36:12;23.40;99.90
12438;DHT22;6283;51.330;12.374;2023-09-19T13:38:42;23.40;99.90
12438;DHT22;6283;51.330;12.374;2023-09-19T13:41:13;23.60;99.90
12438;DHT22;6283;51.330;12.374;2023-09-19T13:43:39;23.60;99.90
12438;DHT22;6283;51.330;12.374;2023-09-19T13:46:05;23.50;99.90
12438;DHT22;6283;51.330;12.374;2023-09-19T13:48:33;23.40;99.90
12438;DHT22;6283;51.330;12.374;2023-09-19T13:51:01;23.40;99.90
12438;DHT22;6283;51.330;12.374;2023-09-19T13:53:27;23.40;99.90
12438;DHT22;6283;51.330;12.374;2023-09-19T13:55:53;23.50;99.90
12438;DHT22;6283;51.330;12.374;2023-09-19T13:58:18;23.50;99.90
12438;DHT22;6283;51.330;12.374;2023-09-19T14:00:44;23.50;99.90
12438;DHT22;6283;51.330;12.374;2023-09-19T14:03:09;23.50;99.90
12438;DHT22;6283;51.330;12.374;2023-09-19T14:05:36;23.70;99.90
12438;DHT22;6283;51.330;12.374;2023-09-19T14:08:03;23.90;99.90
12438;DHT22;6283;51.330;12.374;2023-09-19T14:10:29;24.10;99.90
12438;DHT22;6283;51.330;12.374;2023-09-19T14:12:57;24.30;99.90
12438;DHT22;6283;51.330;12.374;2023-09-19T14:15:25;24.50;99.90
12438;DHT22;6283;51.330;12.374;2023-09-19T14:17:58;24.60;99.90
12438;DHT22;6283;51.330;12.374;2023-09-19T14:20:24;24.30;99.90
12438;DHT22;6283;51.330;12.374;2023-09-19T14:22:55;24.00;99.90
12438;DHT22;6283;51.330;12.374;2023-09-19T14:25:20;23.90;99.90
12438;DHT22;6283;51.330;12.374;2023-09-19T14:27:47;24.00;99.90
12438;DHT22;6283;51.330;12.374;2023-09-19T14:30:13;24.10;99.90
12438;DHT22;6283;51.330;12.374;2023-09-19T14:32:39;24.10;99.90
12438;DHT22;6283;51.330;12.374;2023-09-19T14:35:09;24.00;99.90
12438;DHT22;6283;51.330;12.374;2023-09-19T14:37:39;24.00;99.90
12438;DHT22;6283;51.330;12.374;2023-09-19T14:40:05;24.00;99.90
12438;DHT22;6283;51.330;12.374;2023-09-19T14:42:35;24.10;99.90
12438;DHT22;6283;51.330;12.374;2023-09-19T14:45:02;24.30;99.90
12438;DHT22;6283;51.330;12.374;2023-09-19T14:47:28;24.40;99.90
12438;DHT22;6283;51.330;12.374;2023-09-19T14:49:53;24.50;99.90
12438;DHT22;6283;51.330;12.374;2023-09-19T14:52:19;24.80;99.90
12438;DHT22;6283;51.330;12.374;2023-09-19T14:54:44;25.00;99.90
12438;DHT22;6283;51.330;12.374;2023-09-19T14:57:10;25.00;99.90
12438;DHT22;6283;51.330;12.374;2023-09-19T14:59:36;24.80;99.90
12438;DHT22;6283;51.330;12.374;2023-09-19T15:02:05;24.70;99.90
12438;DHT22;6283;51.330;12.374;2023-09-19T15:04:31;24.50;99.90
12438;DHT22;6283;51.330;12.374;2023-09-19T15:06:57;24.50;99.90
12438;DHT22;6283;51.330;12.374;2023-09-19T15:09:23;24.50;99.90
12438;DHT22;6283;51.330;12.374;2023-09-19T15:11:54;24.50;99.90
12438;DHT22;6283;51.330;12.374;2023-09-19T15:14:20;24.50;99.90
12438;DHT22;6283;51.330;12.374;2023-09-19T15:16:46;24.50;99.90
12438;DHT22;6283;51.330;12.374;2023-09-19T15:19:13;24.60;99.90
12438;DHT22;6283;51.330;12.374;2023-09-19T15:21:38;24.70;99.90
12438;DHT22;6283;51.330;12.374;2023-09-19T15:24:05;24.80;99.90
12438;DHT22;6283;51.330;12.374;2023-09-19T15:26:35;24.80;99.90
12438;DHT22;6283;51.330;12.374;2023-09-19T15:29:05;24.90;99.90
12438;DHT22;6283;51.330;12.374;2023-09-19T15:31:31;25.10;99.90
12438;DHT22;6283;51.330;12.374;2023-09-19T15:33:56;25.10;99.90
12438;DHT22;6283;51.330;12.374;2023-09-19T15:36:23;25.10;99.90
12438;DHT22;6283;51.330;12.374;2023-09-19T15:39:03;25.10;99.90
12438;DHT22;6283;51.330;12.374;2023-09-19T15:41:33;25.00;99.90
12438;DHT22;6283;51.330;12.374;2023-09-19T15:44:01;24.80;99.90
12438;DHT22;6283;51.330;12.374;2023-09-19T15:46:27;24.60;99.90
12438;DHT22;6283;51.330;12.374;2023-09-19T15:48:53;24.50;99.90
12438;DHT22;6283;51.330;12.374;2023-09-19T15:51:19;24.50;99.90
12438;DHT22;6283;51.330;12.374;2023-09-19T15:53:46;24.40;99.90
12438;DHT22;6283;51.330;12.374;2023-09-19T15:56:12;24.40;99.90
12438;DHT22;6283;51.330;12.374;2023-09-19T15:58:43;24.40;99.90
12438;DHT22;6283;51.330;12.374;2023-09-19T16:01:09;24.40;99.90
12438;DHT22;6283;51.330;12.374;2023-09-19T16:03:38;24.50;99.90
12438;DHT22;6283;51.330;12.374;2023-09-19T16:06:09;24.50;99.90
12438;DHT22;6283;51.330;12.374;2023-09-19T16:08:38;24.40;99.90
12438;DHT22;6283;51.330;12.374;2023-09-19T16:11:03;24.40;99.90
12438;DHT22;6283;51.330;12.374;2023-09-19T16:13:29;24.40;99.90
12438;DHT22;6283;51.330;12.374;2023-09-19T16:15:55;24.30;99.90
12438;DHT22;6283;51.330;12.374;2023-09-19T16:18:20;24.20;99.90
12438;DHT22;6283;51.330;12.374;2023-09-19T16:20:46;24.10;99.90
12438;DHT22;6283;51.330;12.374;2023-09-19T16:23:12;24.10;99.90
12438;DHT22;6283;51.330;12.374;2023-09-19T16:25:37;23.90;99.90
12438;DHT22;6283;51.330;12.374;2023-09-19T16:28:03;23.80;99.90
12438;DHT22;6283;51.330;12.374;2023-09-19T16:30:31;23.70;99.90
12438;DHT22;6283;51.330;12.374;2023-09-19T16:32:57;23.70;99.90